DeKalb Peachtree Airport
KPDK : rendu visible

Aérodrome :











RETROUVEZ-NOUS SUR...

 
LOGIN :

S'inscrire | Disclaimer

   EN    FR    IT 

 









Légende :    VFR   VFR Marginal   IFR   IFR Intensif   IFR Très Intensif
Visi : 
Plafond : 
>= 8 km
>= 3000ft
5 à 8 km
1000 à 3000 ft
1500m à 5 km
500 à 1000 ft
800 à 1500m
200 à 500 ft
< 800m
< 200 ft
Symboles :   Orages  Brouillard  Fortes neiges  Fortes précipitations  Vent > 20 kt






- Altitude de l'aérodrome : 1003 ft


KPDK - DeKalb Peachtree

DERNIER METAR :
  • 250453Z AUTO 09005KT 10SM CLR 08/02 A3026 RMK AO2 SLP252 T00830022 401440017

METARs EXPIRÉS :
  • 250353Z AUTO 08003KT 10SM CLR 09/02 A3028 RMK AO2 SLP256 T00890022
  • 250253Z AUTO VRB03KT 10SM BKN045 09/02 A3028 RMK AO2 SLP260 T00890022 50007

TAF KPDK
Valide du 25 à 02h jusqu'au 26 à 00h UTC


250205Z 2502/2524 10006KT P6SM BKN040
FM250600 11008KT P6SM BKN025
FM250800 11007KT P6SM BKN015
FM251000 10006KT P6SM OVC010
FM251500 13007KT P6SM OVC012
FM251600 14007KT P6SM OVC025
FM252200 15007KT P6SM OVC035
FIR KZTL / Amérique du Nord



MET'MAP, la Météo Aéronautique d'un coup d'oeil ! - Copyright ORBIFLY Décembre 2007 - Disclaimer

ORBIFLY MET'MAP TEAM :

Programmation & Développement : Alexandra Zaïnal
Sur une idée originale de : Baudouin d'Aumeries
Assistance à la programmation : Marc-Olivier Méhu
Soutien technique & logistique : Manuel Goepfert

Contact : metmap@orbifly.com




SOURCES & CREDITS :

   NOAA       Earth
Advisory